createdAt,value
2022-11-15T00:56:33.807Z,97.8
2022-11-15T01:16:33.819Z,98
2022-11-15T01:36:28.774Z,97.9
2022-11-15T01:56:33.796Z,97.9
2022-11-15T02:16:33.678Z,97.9
2022-11-15T02:36:33.651Z,98
2022-11-15T02:56:33.607Z,97.9
2022-11-15T03:16:40.624Z,98.1
2022-11-15T03:36:33.618Z,98.2
2022-11-15T03:56:33.526Z,98.1
2022-11-15T04:36:33.483Z,98
2022-11-15T04:56:33.446Z,98.1
2022-11-15T05:16:33.457Z,98.3
2022-11-15T06:16:33.303Z,98.2
2022-11-15T06:36:40.277Z,98.2
2022-11-15T06:56:40.249Z,98.5
2022-11-15T07:36:33.245Z,93.6
2022-11-15T07:56:33.166Z,85.5
2022-11-15T08:16:33.093Z,80.2
2022-11-15T08:36:41.722Z,80.8
2022-11-15T08:56:28.053Z,77.8
2022-11-15T09:16:33.003Z,74.8
2022-11-15T09:36:32.973Z,73.4
2022-11-15T09:56:32.929Z,72.6
2022-11-15T10:16:32.838Z,68.4
2022-11-15T10:36:32.859Z,68.9
2022-11-15T10:56:39.752Z,68.8
2022-11-15T11:16:36.287Z,70.7
2022-11-15T11:36:27.673Z,69.9
2022-11-15T11:56:32.637Z,70.5
2022-11-15T12:16:32.589Z,69.5
2022-11-15T12:36:27.518Z,68.4
2022-11-15T12:56:32.471Z,68.3
2022-11-15T13:16:32.432Z,67
2022-11-15T13:36:32.397Z,67.6
2022-11-15T13:56:27.358Z,68.8
2022-11-15T14:16:32.268Z,70.1
2022-11-15T14:36:32.264Z,74.2
2022-11-15T15:36:27.167Z,83
2022-11-15T16:16:32.065Z,88.1
2022-11-15T16:36:32.009Z,88.2
2022-11-15T17:36:26.901Z,92.3
2022-11-15T17:56:31.864Z,91.3
2022-11-15T18:16:38.821Z,90.6
2022-11-15T18:36:38.775Z,91.1
2022-11-15T18:56:26.803Z,92.3
2022-11-15T19:36:31.647Z,92
2022-11-15T19:56:31.682Z,93.9
2022-11-15T20:16:47.932Z,94.8
2022-11-15T20:36:26.572Z,94.3
2022-11-15T20:56:38.537Z,95.2
2022-11-15T21:16:38.503Z,96.3
2022-11-15T21:36:38.454Z,97.3
2022-11-15T21:56:26.491Z,97.7
2022-11-15T22:16:26.398Z,97.9
2022-11-15T22:36:42.714Z,98.1
2022-11-15T22:56:45.344Z,98.1
2022-11-15T23:16:31.377Z,98.2
2022-11-15T23:36:33.256Z,98.2
2022-11-15T23:56:31.259Z,98.3
